sensor_id;sensor_type;location;lat;lon;timestamp;pressure;altitude;pressure_sealevel;temperature;humidity
28921;BME280;16035;53.594;9.952;2024-03-02T00:01:24;100352.41;;;10.73;64.63
28921;BME280;16035;53.594;9.952;2024-03-02T00:03:24;100357.00;;;10.77;64.33
28921;BME280;16035;53.594;9.952;2024-03-02T00:05:25;100352.41;;;10.73;64.83
28921;BME280;16035;53.594;9.952;2024-03-02T00:07:25;100351.59;;;10.67;65.05
28921;BME280;16035;53.594;9.952;2024-03-02T00:09:25;100357.03;;;10.67;65.00
28921;BME280;16035;53.594;9.952;2024-03-02T00:11:26;100351.84;;;10.60;64.70
28921;BME280;16035;53.594;9.952;2024-03-02T00:13:27;100349.41;;;10.54;64.73
28921;BME280;16035;53.594;9.952;2024-03-02T00:15:35;100356.19;;;10.56;65.20
28921;BME280;16035;53.594;9.952;2024-03-02T00:17:39;100347.22;;;10.56;64.94
28921;BME280;16035;53.594;9.952;2024-03-02T00:19:40;100354.00;;;10.53;65.81
28921;BME280;16035;53.594;9.952;2024-03-02T00:21:40;100347.50;;;10.49;65.15
28921;BME280;16035;53.594;9.952;2024-03-02T00:23:40;100346.41;;;10.50;64.86
28921;BME280;16035;53.594;9.952;2024-03-02T00:27:49;100342.06;;;10.49;65.27
28921;BME280;16035;53.594;9.952;2024-03-02T00:29:50;100336.34;;;10.46;65.46
28921;BME280;16035;53.594;9.952;2024-03-02T00:31:50;100331.44;;;10.43;65.23
28921;BME280;16035;53.594;9.952;2024-03-02T00:33:50;100333.06;;;10.38;65.38
28921;BME280;16035;53.594;9.952;2024-03-02T00:35:51;100325.19;;;10.37;65.67
28921;BME280;16035;53.594;9.952;2024-03-02T00:37:52;100327.09;;;10.36;65.61
28921;BME280;16035;53.594;9.952;2024-03-02T00:39:52;100333.88;;;10.39;65.73
28921;BME280;16035;53.594;9.952;2024-03-02T00:41:53;100326.28;;;10.36;65.53
28921;BME280;16035;53.594;9.952;2024-03-02T00:44:00;100328.44;;;10.34;66.13
28921;BME280;16035;53.594;9.952;2024-03-02T00:46:01;100323.81;;;10.34;65.56
28921;BME280;16035;53.594;9.952;2024-03-02T00:48:02;100326.00;;;10.32;65.66
28921;BME280;16035;53.594;9.952;2024-03-02T00:50:02;100321.66;;;10.36;65.82
28921;BME280;16035;53.594;9.952;2024-03-02T00:52:05;100321.38;;;10.43;65.63
28921;BME280;16035;53.594;9.952;2024-03-02T00:54:09;100318.13;;;10.46;65.88
28921;BME280;16035;53.594;9.952;2024-03-02T00:56:10;100319.22;;;10.45;65.67
28921;BME280;16035;53.594;9.952;2024-03-02T00:58:12;100324.09;;;10.43;65.67
28921;BME280;16035;53.594;9.952;2024-03-02T01:00:12;100321.38;;;10.43;66.06
28921;BME280;16035;53.594;9.952;2024-03-02T01:02:15;100324.38;;;10.42;66.03
28921;BME280;16035;53.594;9.952;2024-03-02T01:04:15;100325.72;;;10.39;66.01
28921;BME280;16035;53.594;9.952;2024-03-02T01:06:16;100324.38;;;10.42;65.51
28921;BME280;16035;53.594;9.952;2024-03-02T01:08:17;100329.00;;;10.41;66.07
28921;BME280;16035;53.594;9.952;2024-03-02T01:10:17;100331.16;;;10.39;65.54
28921;BME280;16035;53.594;9.952;2024-03-02T01:12:18;100334.97;;;10.38;65.89
28921;BME280;16035;53.594;9.952;2024-03-02T01:14:18;100338.22;;;10.40;66.45
28921;BME280;16035;53.594;9.952;2024-03-02T01:16:18;100338.22;;;10.40;66.07
28921;BME280;16035;53.594;9.952;2024-03-02T01:18:19;100337.41;;;10.34;66.22
28921;BME280;16035;53.594;9.952;2024-03-02T01:20:19;100337.97;;;10.36;66.15
28921;BME280;16035;53.594;9.952;2024-03-02T01:22:20;100343.66;;;10.40;66.27
28921;BME280;16035;53.594;9.952;2024-03-02T01:24:25;100340.69;;;10.36;66.96
28921;BME280;16035;53.594;9.952;2024-03-02T01:26:25;100337.97;;;10.31;67.02
28921;BME280;16035;53.594;9.952;2024-03-02T01:28:25;100331.97;;;10.34;66.65
28921;BME280;16035;53.594;9.952;2024-03-02T01:30:26;100336.88;;;10.32;67.19
28921;BME280;16035;53.594;9.952;2024-03-02T01:32:26;100335.25;;;10.31;67.26
28921;BME280;16035;53.594;9.952;2024-03-02T01:34:27;100333.59;;;10.25;67.46
28921;BME280;16035;53.594;9.952;2024-03-02T01:36:27;100337.06;;;10.16;67.28
28921;BME280;16035;53.594;9.952;2024-03-02T01:38:27;100335.16;;;10.06;68.50
28921;BME280;16035;53.594;9.952;2024-03-02T01:40:28;100332.66;;;9.99;68.29
28921;BME280;16035;53.594;9.952;2024-03-02T01:42:29;100336.19;;;10.00;68.19
28921;BME280;16035;53.594;9.952;2024-03-02T01:44:30;100336.19;;;9.95;68.39
28921;BME280;16035;53.594;9.952;2024-03-02T01:46:31;100328.31;;;9.93;68.40
28921;BME280;16035;53.594;9.952;2024-03-02T01:48:31;100327.50;;;9.93;69.07
28921;BME280;16035;53.594;9.952;2024-03-02T01:50:32;100328.03;;;9.95;68.22
28921;BME280;16035;53.594;9.952;2024-03-02T01:52:33;100326.69;;;9.97;68.60
28921;BME280;16035;53.594;9.952;2024-03-02T01:54:33;100333.22;;;9.96;68.93
28921;BME280;16035;53.594;9.952;2024-03-02T01:56:34;100334.31;;;10.00;68.81
28921;BME280;16035;53.594;9.952;2024-03-02T01:58:35;100325.06;;;9.96;69.14
28921;BME280;16035;53.594;9.952;2024-03-02T02:00:36;100329.41;;;9.92;68.24
28921;BME280;16035;53.594;9.952;2024-03-02T02:02:37;100318.28;;;9.94;68.94
28921;BME280;16035;53.594;9.952;2024-03-02T02:04:37;100318.00;;;9.95;68.97
28921;BME280;16035;53.594;9.952;2024-03-02T02:06:37;100323.41;;;9.90;69.16
28921;BME280;16035;53.594;9.952;2024-03-02T02:08:38;100320.16;;;9.83;69.11
28921;BME280;16035;53.594;9.952;2024-03-02T02:10:38;100315.25;;;9.85;68.98
28921;BME280;16035;53.594;9.952;2024-03-02T02:12:39;100309.28;;;9.83;69.49
28921;BME280;16035;53.594;9.952;2024-03-02T02:14:47;100311.94;;;9.73;69.82
28921;BME280;16035;53.594;9.952;2024-03-02T02:16:47;100314.13;;;9.66;69.53
28921;BME280;16035;53.594;9.952;2024-03-02T02:18:47;100307.06;;;9.65;69.77
28921;BME280;16035;53.594;9.952;2024-03-02T02:20:48;100307.06;;;9.65;69.50
28921;BME280;16035;53.594;9.952;2024-03-02T02:23:01;100301.88;;;9.63;70.24
28921;BME280;16035;53.594;9.952;2024-03-02T02:25:02;100299.72;;;9.65;69.91
28921;BME280;16035;53.594;9.952;2024-03-02T02:27:02;100298.63;;;9.61;69.30
28921;BME280;16035;53.594;9.952;2024-03-02T02:29:02;100302.16;;;9.61;70.05
28921;BME280;16035;53.594;9.952;2024-03-02T02:31:03;100297.84;;;9.66;69.98
28921;BME280;16035;53.594;9.952;2024-03-02T02:33:03;100299.72;;;9.60;70.05
28921;BME280;16035;53.594;9.952;2024-03-02T02:35:04;100294.00;;;9.61;69.99
28921;BME280;16035;53.594;9.952;2024-03-02T02:37:05;100297.00;;;9.60;70.05
28921;BME280;16035;53.594;9.952;2024-03-02T02:39:07;100297.53;;;9.57;70.28
28921;BME280;16035;53.594;9.952;2024-03-02T02:41:10;100291.81;;;9.58;70.24
28921;BME280;16035;53.594;9.952;2024-03-02T02:43:12;100295.91;;;9.56;70.02
28921;BME280;16035;53.594;9.952;2024-03-02T02:45:12;100288.56;;;9.51;70.50
28921;BME280;16035;53.594;9.952;2024-03-02T02:47:14;100288.56;;;9.51;70.16
28921;BME280;16035;53.594;9.952;2024-03-02T02:49:14;100289.09;;;9.53;70.31
28921;BME280;16035;53.594;9.952;2024-03-02T02:51:16;100288.56;;;9.56;70.30
28921;BME280;16035;53.594;9.952;2024-03-02T02:53:16;100281.47;;;9.45;70.76
28921;BME280;16035;53.594;9.952;2024-03-02T02:55:16;100290.69;;;9.49;70.18
28921;BME280;16035;53.594;9.952;2024-03-02T02:57:17;100284.78;;;9.57;70.64
28921;BME280;16035;53.594;9.952;2024-03-02T02:59:17;100285.31;;;9.59;70.56
28921;BME280;16035;53.594;9.952;2024-03-02T03:01:18;100286.16;;;9.60;70.46
28921;BME280;16035;53.594;9.952;2024-03-02T03:03:18;100276.66;;;9.62;70.09
28921;BME280;16035;53.594;9.952;2024-03-02T03:05:18;100285.59;;;9.63;70.10
28921;BME280;16035;53.594;9.952;2024-03-02T03:07:19;100290.50;;;9.61;70.26
28921;BME280;16035;53.594;9.952;2024-03-02T03:09:19;100288.56;;;9.56;70.47
28921;BME280;16035;53.594;9.952;2024-03-02T03:11:19;100286.69;;;9.57;70.35
28921;BME280;16035;53.594;9.952;2024-03-02T03:13:20;100288.31;;;9.58;70.67
28921;BME280;16035;53.594;9.952;2024-03-02T03:15:20;100285.06;;;9.61;70.69
28921;BME280;16035;53.594;9.952;2024-03-02T03:17:23;100288.03;;;9.59;70.49
28921;BME280;16035;53.594;9.952;2024-03-02T03:19:23;100281.25;;;9.57;70.69
28921;BME280;16035;53.594;9.952;2024-03-02T03:21:24;100283.69;;;9.58;70.44
28921;BME280;16035;53.594;9.952;2024-03-02T03:23:24;100285.84;;;9.56;70.88
28921;BME280;16035;53.594;9.952;2024-03-02T03:25:25;100276.59;;;9.42;71.42
28921;BME280;16035;53.594;9.952;2024-03-02T03:27:27;100282.03;;;9.47;71.06
28921;BME280;16035;53.594;9.952;2024-03-02T03:29:27;100284.47;;;9.54;70.48
28921;BME280;16035;53.594;9.952;2024-03-02T03:31:29;100285.06;;;9.56;70.50
28921;BME280;16035;53.594;9.952;2024-03-02T03:33:29;100275.00;;;9.56;71.17
28921;BME280;16035;53.594;9.952;2024-03-02T03:35:30;100285.31;;;9.59;70.60
28921;BME280;16035;53.594;9.952;2024-03-02T03:37:30;100287.47;;;9.57;70.74
28921;BME280;16035;53.594;9.952;2024-03-02T03:39:34;100286.16;;;9.60;71.13
28921;BME280;16035;53.594;9.952;2024-03-02T03:41:34;100279.31;;;9.47;70.87
28921;BME280;16035;53.594;9.952;2024-03-02T03:43:35;100283.94;;;9.52;70.57
28921;BME280;16035;53.594;9.952;2024-03-02T03:45:36;100280.94;;;9.48;70.58
28921;BME280;16035;53.594;9.952;2024-03-02T03:47:36;100272.50;;;9.45;70.64
28921;BME280;16035;53.594;9.952;2024-03-02T03:49:36;100273.09;;;9.47;70.79
28921;BME280;16035;53.594;9.952;2024-03-02T03:51:37;100279.31;;;9.47;71.17
28921;BME280;16035;53.594;9.952;2024-03-02T03:53:37;100269.78;;;9.45;70.68
28921;BME280;16035;53.594;9.952;2024-03-02T03:55:37;100277.41;;;9.43;70.37
28921;BME280;16035;53.594;9.952;2024-03-02T03:57:37;100266.53;;;9.38;70.84
28921;BME280;16035;53.594;9.952;2024-03-02T03:59:38;100280.03;;;9.32;71.07
28921;BME280;16035;53.594;9.952;2024-03-02T04:01:38;100272.78;;;9.38;70.73
28921;BME280;16035;53.594;9.952;2024-03-02T04:03:38;100271.41;;;9.41;71.11
28921;BME280;16035;53.594;9.952;2024-03-02T04:05:39;100265.97;;;9.35;70.82
28921;BME280;16035;53.594;9.952;2024-03-02T04:07:39;100272.47;;;9.29;71.21
28921;BME280;16035;53.594;9.952;2024-03-02T04:09:43;100263.47;;;9.24;71.08
28921;BME280;16035;53.594;9.952;2024-03-02T04:11:43;100269.44;;;9.26;71.25
28921;BME280;16035;53.594;9.952;2024-03-02T04:13:43;100259.69;;;9.25;71.57
28921;BME280;16035;53.594;9.952;2024-03-02T04:15:44;100263.72;;;9.22;71.42
28921;BME280;16035;53.594;9.952;2024-03-02T04:17:44;100261.84;;;9.23;71.44
28921;BME280;16035;53.594;9.952;2024-03-02T04:19:44;100266.16;;;9.19;71.70
28921;BME280;16035;53.594;9.952;2024-03-02T04:21:45;100259.63;;;9.15;71.46
28921;BME280;16035;53.594;9.952;2024-03-02T04:23:45;100262.63;;;9.18;71.24
28921;BME280;16035;53.594;9.952;2024-03-02T04:25:45;100259.63;;;9.15;71.42
28921;BME280;16035;53.594;9.952;2024-03-02T04:27:46;100256.69;;;9.21;71.74
28921;BME280;16035;53.594;9.952;2024-03-02T04:29:47;100264.53;;;9.18;71.61
28921;BME280;16035;53.594;9.952;2024-03-02T04:31:47;100266.13;;;9.14;71.53
28921;BME280;16035;53.594;9.952;2024-03-02T04:33:47;100266.63;;;9.10;71.93
28921;BME280;16035;53.594;9.952;2024-03-02T04:35:48;100265.56;;;9.06;72.01
28921;BME280;16035;53.594;9.952;2024-03-02T04:37:48;100264.72;;;9.06;71.55
28921;BME280;16035;53.594;9.952;2024-03-02T04:39:48;100271.50;;;9.03;72.16
28921;BME280;16035;53.594;9.952;2024-03-02T04:41:49;100274.75;;;9.05;71.81
28921;BME280;16035;53.594;9.952;2024-03-02T04:43:49;100278.53;;;9.04;71.93
28921;BME280;16035;53.594;9.952;2024-03-02T04:45:49;100281.25;;;9.04;71.55
28921;BME280;16035;53.594;9.952;2024-03-02T04:47:50;100286.97;;;9.08;72.00
28921;BME280;16035;53.594;9.952;2024-03-02T04:49:50;100289.41;;;9.09;71.59
28921;BME280;16035;53.594;9.952;2024-03-02T04:51:50;100280.75;;;9.07;71.23
28921;BME280;16035;53.594;9.952;2024-03-02T04:53:51;100284.25;;;9.08;71.16
28921;BME280;16035;53.594;9.952;2024-03-02T04:55:51;100281.03;;;9.11;71.48
28921;BME280;16035;53.594;9.952;2024-03-02T04:58:24;100279.69;;;9.14;71.46
28921;BME280;16035;53.594;9.952;2024-03-02T05:00:24;100276.16;;;9.13;72.11
28921;BME280;16035;53.594;9.952;2024-03-02T05:02:24;100269.63;;;9.09;71.08
28921;BME280;16035;53.594;9.952;2024-03-02T05:04:25;100277.47;;;9.10;71.32
28921;BME280;16035;53.594;9.952;2024-03-02T05:06:25;100269.91;;;9.07;72.02
28921;BME280;16035;53.594;9.952;2024-03-02T05:08:25;100277.25;;;9.12;71.30
28921;BME280;16035;53.594;9.952;2024-03-02T05:10:25;100270.75;;;9.18;71.04
28921;BME280;16035;53.594;9.952;2024-03-02T05:12:26;100266.94;;;9.14;71.25
28921;BME280;16035;53.594;9.952;2024-03-02T05:14:45;100270.47;;;9.15;71.14
28921;BME280;16035;53.594;9.952;2024-03-02T05:16:46;100256.34;;;9.07;72.10
28921;BME280;16035;53.594;9.952;2024-03-02T05:18:46;100270.97;;;9.06;71.00
28921;BME280;16035;53.594;9.952;2024-03-02T05:20:46;100265.81;;;9.10;71.25
28921;BME280;16035;53.594;9.952;2024-03-02T05:22:48;100271.28;;;9.15;71.43
28921;BME280;16035;53.594;9.952;2024-03-02T05:24:49;100269.41;;;9.16;71.60
28921;BME280;16035;53.594;9.952;2024-03-02T05:26:50;100273.72;;;9.11;71.68
28921;BME280;16035;53.594;9.952;2024-03-02T05:28:50;100275.28;;;9.02;71.80
28921;BME280;16035;53.594;9.952;2024-03-02T05:30:50;100273.41;;;9.08;71.79
28921;BME280;16035;53.594;9.952;2024-03-02T05:32:50;100279.16;;;9.17;71.48
28921;BME280;16035;53.594;9.952;2024-03-02T05:34:51;100283.22;;;9.19;71.37
28921;BME280;16035;53.594;9.952;2024-03-02T05:36:51;100275.09;;;9.19;71.54
28921;BME280;16035;53.594;9.952;2024-03-02T05:38:52;100278.66;;;9.20;71.07
28921;BME280;16035;53.594;9.952;2024-03-02T05:40:52;100276.19;;;9.23;70.94
28921;BME280;16035;53.594;9.952;2024-03-02T05:42:52;100277.28;;;9.22;70.63
28921;BME280;16035;53.594;9.952;2024-03-02T05:44:53;100279.19;;;9.22;71.21
28921;BME280;16035;53.594;9.952;2024-03-02T05:46:53;100282.41;;;9.19;71.44
28921;BME280;16035;53.594;9.952;2024-03-02T05:48:53;100277.25;;;9.17;70.99
28921;BME280;16035;53.594;9.952;2024-03-02T05:50:54;100272.63;;;9.13;70.73
28921;BME280;16035;53.594;9.952;2024-03-02T05:52:54;100275.84;;;9.09;71.46
28921;BME280;16035;53.594;9.952;2024-03-02T05:54:56;100271.00;;;9.11;71.55
28921;BME280;16035;53.594;9.952;2024-03-02T05:56:56;100271.53;;;9.08;71.50
28921;BME280;16035;53.594;9.952;2024-03-02T05:58:57;100274.75;;;9.05;71.66
28921;BME280;16035;53.594;9.952;2024-03-02T06:01:12;100275.34;;;9.13;71.13
28921;BME280;16035;53.594;9.952;2024-03-02T06:03:13;100283.47;;;9.13;71.69
28921;BME280;16035;53.594;9.952;2024-03-02T06:05:13;100274.25;;;9.14;71.31
28921;BME280;16035;53.594;9.952;2024-03-02T06:07:15;100280.97;;;9.06;71.09
28921;BME280;16035;53.594;9.952;2024-03-02T06:09:15;100276.31;;;8.96;71.17
28921;BME280;16035;53.594;9.952;2024-03-02T06:11:16;100284.41;;;8.91;72.08
28921;BME280;16035;53.594;9.952;2024-03-02T06:13:17;100294.41;;;8.85;72.11
28921;BME280;16035;53.594;9.952;2024-03-02T06:15:17;100284.91;;;8.83;72.24
28921;BME280;16035;53.594;9.952;2024-03-02T06:17:18;100290.31;;;8.83;72.05
28921;BME280;16035;53.594;9.952;2024-03-02T06:19:19;100289.31;;;8.89;72.08
28921;BME280;16035;53.594;9.952;2024-03-02T06:21:20;100293.38;;;8.97;72.15
28921;BME280;16035;53.594;9.952;2024-03-02T06:23:20;100292.06;;;8.99;71.87
28921;BME280;16035;53.594;9.952;2024-03-02T06:25:20;100289.88;;;8.96;71.85
28921;BME280;16035;53.594;9.952;2024-03-02T06:27:21;100287.72;;;8.98;71.77
28921;BME280;16035;53.594;9.952;2024-03-02T06:29:21;100290.97;;;8.95;71.35
28921;BME280;16035;53.594;9.952;2024-03-02T06:31:22;100289.53;;;8.88;71.68
28921;BME280;16035;53.594;9.952;2024-03-02T06:33:22;100283.84;;;8.84;71.86
28921;BME280;16035;53.594;9.952;2024-03-02T06:35:22;100284.88;;;8.78;71.40
28921;BME280;16035;53.594;9.952;2024-03-02T06:37:23;100286.72;;;8.72;72.38
28921;BME280;16035;53.594;9.952;2024-03-02T06:39:23;100285.31;;;8.65;71.85
28921;BME280;16035;53.594;9.952;2024-03-02T06:41:23;100280.16;;;8.63;72.24
28921;BME280;16035;53.594;9.952;2024-03-02T06:43:24;100285.00;;;8.61;72.29
28921;BME280;16035;53.594;9.952;2024-03-02T06:45:24;100289.66;;;8.66;72.46
28921;BME280;16035;53.594;9.952;2024-03-02T06:47:27;100285.31;;;8.65;72.58
28921;BME280;16035;53.594;9.952;2024-03-02T06:49:27;100286.41;;;8.64;72.75
28921;BME280;16035;53.594;9.952;2024-03-02T06:51:28;100290.22;;;8.68;72.15
28921;BME280;16035;53.594;9.952;2024-03-02T06:53:28;100291.34;;;8.72;72.15
28921;BME280;16035;53.594;9.952;2024-03-02T06:55:30;100289.19;;;8.74;72.29
28921;BME280;16035;53.594;9.952;2024-03-02T06:57:31;100291.38;;;8.77;72.56
28921;BME280;16035;53.594;9.952;2024-03-02T06:59:31;100285.69;;;8.78;72.25
28921;BME280;16035;53.594;9.952;2024-03-02T07:01:31;100286.81;;;8.82;71.69
28921;BME280;16035;53.594;9.952;2024-03-02T07:03:31;100285.78;;;8.89;71.89
28921;BME280;16035;53.594;9.952;2024-03-02T07:05:33;100288.19;;;8.85;72.57
28921;BME280;16035;53.594;9.952;2024-03-02T07:07:33;100297.13;;;8.85;72.43
28921;BME280;16035;53.594;9.952;2024-03-02T07:09:34;100302.25;;;8.82;72.29
28921;BME280;16035;53.594;9.952;2024-03-02T07:11:35;100308.81;;;8.91;72.46
28921;BME280;16035;53.594;9.952;2024-03-02T07:13:35;100308.31;;;8.99;72.17
28921;BME280;16035;53.594;9.952;2024-03-02T07:15:36;100320.03;;;9.10;71.75
28921;BME280;16035;53.594;9.952;2024-03-02T07:18:03;100325.78;;;9.19;71.85
28921;BME280;16035;53.594;9.952;2024-03-02T07:20:04;100328.81;;;9.27;71.52
28921;BME280;16035;53.594;9.952;2024-03-02T07:22:07;100328.63;;;9.39;71.58
28921;BME280;16035;53.594;9.952;2024-03-02T07:24:11;100326.47;;;9.41;71.31
28921;BME280;16035;53.594;9.952;2024-03-02T07:26:13;100325.34;;;9.37;71.94
28921;BME280;16035;53.594;9.952;2024-03-02T07:28:15;100331.81;;;9.26;71.53
28921;BME280;16035;53.594;9.952;2024-03-02T07:30:15;100332.13;;;9.34;71.87
28921;BME280;16035;53.594;9.952;2024-03-02T07:32:18;100326.44;;;9.36;71.73
28921;BME280;16035;53.594;9.952;2024-03-02T07:34:18;100329.44;;;9.40;71.75
28921;BME280;16035;53.594;9.952;2024-03-02T07:36:19;100334.06;;;9.39;71.91
28921;BME280;16035;53.594;9.952;2024-03-02T07:38:19;100341.13;;;9.45;71.48
28921;BME280;16035;53.594;9.952;2024-03-02T07:40:20;100339.00;;;9.52;71.26
28921;BME280;16035;53.594;9.952;2024-03-02T07:42:20;100339.63;;;9.65;71.57
28921;BME280;16035;53.594;9.952;2024-03-02T07:44:21;100342.91;;;9.77;71.34
28921;BME280;16035;53.594;9.952;2024-03-02T07:46:21;100344.28;;;9.84;71.38
28921;BME280;16035;53.594;9.952;2024-03-02T07:48:21;100346.78;;;9.91;70.68
28921;BME280;16035;53.594;9.952;2024-03-02T07:50:22;100338.06;;;9.89;70.32
28921;BME280;16035;53.594;9.952;2024-03-02T07:52:22;100355.69;;;9.86;70.92
28921;BME280;16035;53.594;9.952;2024-03-02T07:54:22;100348.41;;;9.87;70.25
28921;BME280;16035;53.594;9.952;2024-03-02T07:56:23;100354.63;;;9.82;71.17
28921;BME280;16035;53.594;9.952;2024-03-02T07:58:23;100357.56;;;9.81;70.65
28921;BME280;16035;53.594;9.952;2024-03-02T08:00:24;100360.59;;;9.84;70.74
28921;BME280;16035;53.594;9.952;2024-03-02T08:02:25;100355.94;;;9.80;70.73
28921;BME280;16035;53.594;9.952;2024-03-02T08:04:26;100356.75;;;9.80;70.84
28921;BME280;16035;53.594;9.952;2024-03-02T08:06:27;100363.00;;;9.81;70.63
28921;BME280;16035;53.594;9.952;2024-03-02T08:08:28;100357.59;;;9.86;70.47
28921;BME280;16035;53.594;9.952;2024-03-02T08:10:28;100362.50;;;9.89;71.07
28921;BME280;16035;53.594;9.952;2024-03-02T08:12:28;100365.53;;;9.98;70.61
28921;BME280;16035;53.594;9.952;2024-03-02T08:14:29;100365.31;;;10.15;70.51
28921;BME280;16035;53.594;9.952;2024-03-02T08:16:29;100359.13;;;10.24;70.05
28921;BME280;16035;53.594;9.952;2024-03-02T08:18:30;100365.94;;;10.32;70.40
28921;BME280;16035;53.594;9.952;2024-03-02T08:20:30;100362.94;;;10.28;69.82
28921;BME280;16035;53.594;9.952;2024-03-02T08:22:31;100364.03;;;10.32;70.04
28921;BME280;16035;53.594;9.952;2024-03-02T08:24:32;100367.28;;;10.34;69.71
28921;BME280;16035;53.594;9.952;2024-03-02T08:26:32;100363.75;;;10.39;70.04
28921;BME280;16035;53.594;9.952;2024-03-02T08:28:33;100370.28;;;10.48;70.15
28921;BME280;16035;53.594;9.952;2024-03-02T08:30:34;100373.00;;;10.53;69.84
28921;BME280;16035;53.594;9.952;2024-03-02T08:32:34;100376.25;;;10.40;69.43
28921;BME280;16035;53.594;9.952;2024-03-02T08:34:34;100373.53;;;10.35;69.35
28921;BME280;16035;53.594;9.952;2024-03-02T08:36:35;100379.81;;;10.41;70.20
28921;BME280;16035;53.594;9.952;2024-03-02T08:38:36;100382.81;;;10.49;69.14
28921;BME280;16035;53.594;9.952;2024-03-02T08:40:36;100377.63;;;10.43;69.13
28921;BME280;16035;53.594;9.952;2024-03-02T08:42:37;100381.66;;;10.35;69.88
28921;BME280;16035;53.594;9.952;2024-03-02T08:44:37;100384.44;;;10.45;70.00
28921;BME280;16035;53.594;9.952;2024-03-02T08:46:41;100382.53;;;10.61;69.95
28921;BME280;16035;53.594;9.952;2024-03-02T08:48:41;100375.47;;;10.80;69.32
28921;BME280;16035;53.594;9.952;2024-03-02T08:50:41;100386.66;;;10.94;68.99
28921;BME280;16035;53.594;9.952;2024-03-02T08:52:42;100377.94;;;11.12;68.81
28921;BME280;16035;53.594;9.952;2024-03-02T08:54:43;100373.28;;;11.28;69.09
28921;BME280;16035;53.594;9.952;2024-03-02T08:56:43;100374.59;;;11.56;68.61
28921;BME280;16035;53.594;9.952;2024-03-02T08:58:44;100375.63;;;11.76;67.74
28921;BME280;16035;53.594;9.952;2024-03-02T09:00:44;100380.19;;;11.96;67.45
28921;BME280;16035;53.594;9.952;2024-03-02T09:02:46;100381.13;;;12.30;68.21
28921;BME280;16035;53.594;9.952;2024-03-02T09:04:47;100368.19;;;12.51;67.45
28921;BME280;16035;53.594;9.952;2024-03-02T09:06:47;100369.59;;;12.83;67.34
28921;BME280;16035;53.594;9.952;2024-03-02T09:08:48;100378.59;;;13.12;66.43
28921;BME280;16035;53.594;9.952;2024-03-02T09:10:49;100370.31;;;13.28;66.21
28921;BME280;16035;53.594;9.952;2024-03-02T09:12:50;100375.97;;;13.36;65.44
28921;BME280;16035;53.594;9.952;2024-03-02T09:14:50;100379.38;;;13.47;65.18
28921;BME280;16035;53.594;9.952;2024-03-02T09:16:50;100381.28;;;13.23;64.84
28921;BME280;16035;53.594;9.952;2024-03-02T09:18:51;100383.28;;;13.07;65.39
28921;BME280;16035;53.594;9.952;2024-03-02T09:20:51;100381.66;;;13.06;65.69
28921;BME280;16035;53.594;9.952;2024-03-02T09:22:51;100389.91;;;13.01;64.93
28921;BME280;16035;53.594;9.952;2024-03-02T09:24:52;100384.88;;;12.79;64.21
28921;BME280;16035;53.594;9.952;2024-03-02T09:26:52;100390.38;;;12.74;65.38
28921;BME280;16035;53.594;9.952;2024-03-02T09:28:52;100391.13;;;12.84;65.73
28921;BME280;16035;53.594;9.952;2024-03-02T09:30:53;100386.22;;;12.86;63.83
28921;BME280;16035;53.594;9.952;2024-03-02T09:32:53;100389.25;;;12.80;65.04
28921;BME280;16035;53.594;9.952;2024-03-02T09:34:53;100394.59;;;12.95;65.05
28921;BME280;16035;53.594;9.952;2024-03-02T09:36:56;100395.06;;;13.36;64.94
28921;BME280;16035;53.594;9.952;2024-03-02T09:38:56;100392.78;;;13.49;63.88
28921;BME280;16035;53.594;9.952;2024-03-02T09:40:56;100380.28;;;13.90;65.02
28921;BME280;16035;53.594;9.952;2024-03-02T09:42:57;100380.34;;;14.47;63.50
28921;BME280;16035;53.594;9.952;2024-03-02T09:44:57;100373.72;;;15.51;63.69
28921;BME280;16035;53.594;9.952;2024-03-02T09:46:58;100383.41;;;16.40;62.04
28921;BME280;16035;53.594;9.952;2024-03-02T09:48:58;100379.81;;;16.89;59.77
28921;BME280;16035;53.594;9.952;2024-03-02T09:50:59;100376.31;;;17.20;60.85
28921;BME280;16035;53.594;9.952;2024-03-02T09:53:01;100378.38;;;17.46;60.56
28921;BME280;16035;53.594;9.952;2024-03-02T09:55:02;100373.97;;;17.36;59.44
28921;BME280;16035;53.594;9.952;2024-03-02T09:57:03;100368.59;;;17.62;60.72
28921;BME280;16035;53.594;9.952;2024-03-02T09:59:03;100376.38;;;18.26;59.24
28921;BME280;16035;53.594;9.952;2024-03-02T10:01:08;100376.59;;;18.55;58.36
28921;BME280;16035;53.594;9.952;2024-03-02T10:03:12;100373.50;;;18.65;57.13
28921;BME280;16035;53.594;9.952;2024-03-02T10:05:12;100368.03;;;18.39;55.09
28921;BME280;16035;53.594;9.952;2024-03-02T10:07:17;100371.88;;;18.38;56.70
28921;BME280;16035;53.594;9.952;2024-03-02T10:09:27;100371.25;;;18.67;55.46
28921;BME280;16035;53.594;9.952;2024-03-02T10:11:32;100382.09;;;18.64;56.06
28921;BME280;16035;53.594;9.952;2024-03-02T10:13:34;100374.00;;;18.59;54.93
28921;BME280;16035;53.594;9.952;2024-03-02T10:15:38;100375.25;;;18.09;52.76
28921;BME280;16035;53.594;9.952;2024-03-02T10:17:40;100376.38;;;17.68;54.88
28921;BME280;16035;53.594;9.952;2024-03-02T10:19:41;100378.69;;;17.44;55.32
28921;BME280;16035;53.594;9.952;2024-03-02T10:21:41;100371.22;;;17.36;55.23
28921;BME280;16035;53.594;9.952;2024-03-02T10:23:42;100377.06;;;17.12;54.43
28921;BME280;16035;53.594;9.952;2024-03-02T10:25:43;100375.75;;;16.87;55.47
28921;BME280;16035;53.594;9.952;2024-03-02T10:27:44;100381.06;;;16.47;51.87
28921;BME280;16035;53.594;9.952;2024-03-02T10:29:47;100378.09;;;16.21;54.50
28921;BME280;16035;53.594;9.952;2024-03-02T10:31:48;100379.44;;;15.82;55.33
28921;BME280;16035;53.594;9.952;2024-03-02T10:33:48;100381.22;;;15.59;54.93
28921;BME280;16035;53.594;9.952;2024-03-02T10:35:50;100383.16;;;15.59;54.96
28921;BME280;16035;53.594;9.952;2024-03-02T10:37:50;100374.09;;;15.45;53.49
28921;BME280;16035;53.594;9.952;2024-03-02T10:39:52;100385.59;;;15.60;55.06